createdAt,value
2023-04-19T02:26:54.158Z,9.762917
2023-04-19T02:27:54.160Z,9.763375
2023-04-19T02:28:54.147Z,9.763412
2023-04-19T02:29:54.128Z,9.763310
2023-04-19T02:30:54.114Z,9.763266
2023-04-19T02:31:54.134Z,9.763245
2023-04-19T02:32:54.120Z,9.762948
2023-04-19T02:33:54.094Z,9.762791
2023-04-19T02:34:54.067Z,9.762623
2023-04-19T02:35:54.060Z,9.762684
2023-04-19T02:36:54.075Z,9.762668
2023-04-19T02:37:54.056Z,9.762854
2023-04-19T02:38:54.031Z,9.762703
2023-04-19T02:39:54.022Z,9.762744
2023-04-19T02:40:54.028Z,9.762691
2023-04-19T02:41:54.062Z,9.762689
2023-04-19T02:42:54.003Z,9.762759
2023-04-19T02:43:53.975Z,9.762856
2023-04-19T02:44:54.004Z,9.762670
2023-04-19T02:45:54.018Z,9.762311
2023-04-19T02:46:54.962Z,9.762770
2023-04-19T02:47:54.035Z,9.763081
2023-04-19T02:48:53.947Z,9.763357
2023-04-19T02:49:53.922Z,9.762809
2023-04-19T02:50:53.932Z,9.762774
2023-04-19T02:51:53.894Z,9.762643
2023-04-19T02:52:53.916Z,9.762626
2023-04-19T02:53:53.899Z,9.762528
2023-04-19T02:54:53.874Z,9.762630
2023-04-19T02:55:53.892Z,9.762599
2023-04-19T02:56:53.883Z,9.762609
2023-04-19T02:57:53.869Z,9.762661
2023-04-19T02:58:53.843Z,9.762824
2023-04-19T02:59:53.849Z,9.762644
2023-04-19T03:00:53.871Z,9.762506
2023-04-19T03:01:53.799Z,9.762447
2023-04-19T03:02:54.003Z,9.762319
2023-04-19T03:03:53.865Z,9.762348
2023-04-19T03:04:53.769Z,9.762440
2023-04-19T03:05:53.767Z,9.762985
2023-04-19T03:06:53.757Z,9.762981
2023-04-19T03:07:53.761Z,9.762845
2023-04-19T03:08:53.776Z,9.762841
2023-04-19T03:09:53.735Z,9.762671
2023-04-19T03:10:53.710Z,9.762653
2023-04-19T03:11:53.705Z,9.762710
2023-04-19T03:12:53.714Z,9.762861
2023-04-19T03:13:53.697Z,9.762669
2023-04-19T03:14:53.751Z,9.762767
2023-04-19T03:15:53.724Z,9.762778
2023-04-19T03:16:53.655Z,9.762684
2023-04-19T03:17:53.680Z,9.762577
2023-04-19T03:18:53.644Z,9.762525
2023-04-19T03:19:53.618Z,9.762413
2023-04-19T03:20:53.599Z,9.762490
2023-04-19T03:21:53.609Z,9.762692
2023-04-19T03:22:53.609Z,9.762365
2023-04-19T03:23:53.599Z,9.762736
2023-04-19T03:24:53.565Z,9.762762
2023-04-19T03:25:53.567Z,9.762807
2023-04-19T03:26:53.541Z,9.762928
2023-04-19T03:27:53.543Z,9.762552
2023-04-19T03:28:53.514Z,9.762688
2023-04-19T03:29:53.509Z,9.762874
2023-04-19T03:30:53.523Z,9.762662
2023-04-19T03:31:53.485Z,9.762554
2023-04-19T03:32:53.538Z,9.762492
2023-04-19T03:33:53.488Z,9.762412
2023-04-19T03:34:53.446Z,9.762495
2023-04-19T03:35:53.437Z,9.762792
2023-04-19T03:36:53.446Z,9.762792
2023-04-19T03:37:53.436Z,9.762792
2023-04-19T03:38:53.427Z,9.762792
2023-04-19T03:39:53.391Z,9.763848
2023-04-19T03:40:53.390Z,9.763507
2023-04-19T03:41:53.380Z,9.763455
2023-04-19T03:42:53.388Z,9.763290
2023-04-19T03:43:53.397Z,9.763171
2023-04-19T03:44:53.340Z,9.763171
2023-04-19T03:45:53.366Z,9.763171
2023-04-19T03:46:53.319Z,9.763171
2023-04-19T03:47:53.357Z,9.763171
2023-04-19T03:48:53.330Z,9.763171
2023-04-19T03:49:53.317Z,9.763171
2023-04-19T03:50:53.297Z,9.763171
2023-04-19T03:51:53.294Z,9.763171
2023-04-19T03:52:53.290Z,9.763171
2023-04-19T03:53:53.271Z,9.763171
2023-04-19T03:54:53.249Z,9.763171
2023-04-19T03:55:53.238Z,9.763171
2023-04-19T03:56:53.246Z,9.763171
2023-04-19T03:57:53.237Z,9.763171
2023-04-19T03:58:53.218Z,9.763171
2023-04-19T03:59:53.205Z,9.763171
2023-04-19T04:00:53.188Z,9.763171
2023-04-19T04:01:53.199Z,9.763171
2023-04-19T04:02:53.374Z,9.763171
2023-04-19T04:03:53.594Z,9.763171
2023-04-19T04:04:53.241Z,9.763171
2023-04-19T04:05:53.129Z,9.763171
2023-04-19T04:06:53.124Z,9.763171
2023-04-19T04:07:53.115Z,9.763171
2023-04-19T04:08:53.129Z,9.763171
2023-04-19T04:09:53.080Z,9.763171
2023-04-19T04:10:53.090Z,9.763171
2023-04-19T04:11:53.071Z,9.763171
2023-04-19T04:12:53.066Z,9.763171
2023-04-19T04:13:53.062Z,9.763171
2023-04-19T04:14:53.042Z,9.763171
2023-04-19T04:15:53.050Z,9.763171
2023-04-19T04:16:53.039Z,9.763171
2023-04-19T04:17:53.064Z,9.763171
2023-04-19T04:18:54.016Z,9.763171
2023-04-19T04:19:52.993Z,9.763171
2023-04-19T04:20:52.980Z,9.763171
2023-04-19T04:21:52.974Z,9.763171
2023-04-19T04:22:52.947Z,9.763171
2023-04-19T04:23:52.951Z,9.763171
2023-04-19T04:24:52.930Z,9.763171
2023-04-19T04:25:52.946Z,9.763171
2023-04-19T04:26:52.923Z,9.763171
2023-04-19T04:27:52.954Z,9.763171
2023-04-19T04:28:52.918Z,9.763171
2023-04-19T04:29:52.897Z,9.763171
2023-04-19T04:30:53.875Z,9.763171
2023-04-19T04:31:52.966Z,9.763171
2023-04-19T04:32:52.925Z,9.763171
2023-04-19T04:33:52.889Z,9.763171
2023-04-19T04:34:52.843Z,9.763171
2023-04-19T04:35:52.865Z,9.763171
2023-04-19T04:36:52.834Z,9.763171
2023-04-19T04:37:52.827Z,9.763171
2023-04-19T04:38:52.833Z,9.763171
2023-04-19T04:39:52.816Z,9.763171
2023-04-19T04:40:52.805Z,9.763171
2023-04-19T04:41:52.798Z,9.763171
2023-04-19T04:42:52.772Z,9.763171
2023-04-19T04:44:08.250Z,9.763171
2023-04-19T04:44:54.754Z,9.763171
2023-04-19T04:45:52.795Z,9.763171
2023-04-19T04:46:52.731Z,9.763171
2023-04-19T04:47:52.879Z,9.763171
2023-04-19T04:48:52.720Z,9.763171
2023-04-19T04:49:52.711Z,9.763171
2023-04-19T04:50:52.733Z,9.763171
2023-04-19T04:51:52.729Z,9.763171
2023-04-19T04:52:52.673Z,9.763171
2023-04-19T04:53:52.673Z,9.763171
2023-04-19T04:54:52.664Z,9.763171
2023-04-19T04:55:52.660Z,9.763171
2023-04-19T04:56:52.691Z,9.763171
2023-04-19T04:57:52.628Z,9.763171
2023-04-19T04:58:52.615Z,9.763171
2023-04-19T04:59:52.630Z,9.763171
2023-04-19T05:00:52.647Z,9.763171
2023-04-19T05:01:52.585Z,9.763171
2023-04-19T05:02:52.688Z,9.763171
2023-04-19T05:03:52.578Z,9.763171
2023-04-19T05:04:52.589Z,9.763171
2023-04-19T05:05:52.544Z,9.763171
2023-04-19T05:06:52.546Z,9.763171
2023-04-19T05:07:52.531Z,9.763171
2023-04-19T05:08:52.501Z,9.763171
2023-04-19T05:09:52.491Z,9.763171
2023-04-19T05:10:52.484Z,9.763171
2023-04-19T05:11:52.466Z,9.763171
2023-04-19T05:12:52.492Z,9.763171
2023-04-19T05:13:53.468Z,9.763171
2023-04-19T05:14:52.434Z,9.763171
2023-04-19T05:15:52.474Z,9.763171
2023-04-19T05:16:52.436Z,9.763171
2023-04-19T05:17:52.570Z,9.763171
2023-04-19T05:18:52.400Z,9.763171
2023-04-19T05:19:52.425Z,9.763171
2023-04-19T05:20:52.373Z,9.763171
2023-04-19T05:21:52.369Z,9.763171
2023-04-19T05:22:52.374Z,9.763171
2023-04-19T05:23:52.358Z,9.763171
2023-04-19T05:24:52.353Z,9.763171
2023-04-19T05:25:52.329Z,9.763171
2023-04-19T05:26:52.313Z,9.763171
2023-04-19T05:27:52.311Z,9.763171
2023-04-19T05:28:52.313Z,9.763171
2023-04-19T05:29:52.284Z,9.763171
2023-04-19T05:30:52.277Z,9.763171
2023-04-19T05:31:52.364Z,9.763171
2023-04-19T05:32:53.313Z,9.763171
2023-04-19T05:33:52.269Z,9.763171
2023-04-19T05:34:52.244Z,9.763171
2023-04-19T05:35:52.219Z,9.763171
2023-04-19T05:36:52.209Z,9.763171
2023-04-19T05:37:52.204Z,9.763171
2023-04-19T05:38:52.243Z,9.763171
2023-04-19T05:39:52.205Z,9.763171
2023-04-19T05:40:52.185Z,9.763171
2023-04-19T05:41:52.152Z,9.763171
2023-04-19T05:42:52.136Z,9.763171
2023-04-19T05:43:53.166Z,9.763171
2023-04-19T05:44:52.129Z,9.763171
2023-04-19T05:45:52.189Z,9.763171
2023-04-19T05:46:52.109Z,9.763171
2023-04-19T05:47:52.143Z,9.763171
2023-04-19T05:48:52.121Z,9.763171
2023-04-19T05:49:52.087Z,9.763171
2023-04-19T05:50:52.069Z,9.763171
2023-04-19T05:51:52.052Z,9.763171
2023-04-19T05:52:52.038Z,9.763171
2023-04-19T05:53:52.672Z,9.763171
2023-04-19T05:54:52.018Z,9.763171
2023-04-19T05:55:53.037Z,9.763171
2023-04-19T05:56:52.020Z,9.763171
2023-04-19T05:57:51.989Z,9.763171
2023-04-19T05:58:51.989Z,9.763171
2023-04-19T05:59:52.002Z,9.763171
2023-04-19T06:00:51.986Z,9.763171
2023-04-19T06:01:51.967Z,9.763171
2023-04-19T06:02:53.086Z,9.763171
2023-04-19T06:03:52.295Z,9.763171
2023-04-19T06:04:51.959Z,9.763171
2023-04-19T06:05:52.064Z,9.763171
2023-04-19T06:06:51.949Z,9.763171
2023-04-19T06:07:55.621Z,9.763171
2023-04-19T06:08:54.807Z,9.763171
2023-04-19T06:09:52.963Z,9.763171
2023-04-19T06:10:55.759Z,9.763171
2023-04-19T06:11:53.959Z,9.763171
2023-04-19T06:12:51.936Z,9.763171
2023-04-19T06:13:52.040Z,9.763171
2023-04-19T06:14:52.060Z,9.763171
2023-04-19T06:15:52.017Z,9.763171
2023-04-19T06:16:51.955Z,9.763171
2023-04-19T06:17:52.006Z,9.763171
2023-04-19T06:18:51.847Z,9.763171
2023-04-19T06:19:51.825Z,9.763171
2023-04-19T06:20:51.793Z,9.763171
2023-04-19T06:21:51.830Z,9.763171
2023-04-19T06:22:51.860Z,9.763171
2023-04-19T06:23:51.899Z,9.763171
2023-04-19T06:24:51.806Z,9.763171
2023-04-19T06:25:51.821Z,9.763171
2023-04-19T06:26:51.781Z,9.763171
2023-04-19T06:27:51.799Z,9.763171
2023-04-19T06:28:51.719Z,9.763171
2023-04-19T06:29:51.687Z,9.763171
2023-04-19T06:30:51.783Z,9.763171
2023-04-19T06:31:51.829Z,9.763171
2023-04-19T06:32:51.741Z,9.763171
2023-04-19T06:33:51.710Z,9.763171
2023-04-19T06:34:51.719Z,9.763171
2023-04-19T06:35:51.731Z,9.763171
2023-04-19T06:36:51.734Z,9.763171
2023-04-19T06:37:52.719Z,9.763171
2023-04-19T06:38:51.682Z,9.763171
2023-04-19T06:39:51.719Z,9.763171
2023-04-19T06:40:51.690Z,9.763171
2023-04-19T06:41:51.866Z,9.763171
2023-04-19T06:42:51.742Z,9.763171
2023-04-19T06:43:51.616Z,9.763171
2023-04-19T06:44:51.691Z,9.763171
2023-04-19T06:45:51.950Z,9.763171
2023-04-19T06:46:51.673Z,9.763171
2023-04-19T06:47:51.590Z,9.763171
2023-04-19T06:48:51.485Z,9.763171
2023-04-19T06:49:51.520Z,9.763171
2023-04-19T06:50:51.444Z,9.763171
2023-04-19T06:51:51.448Z,9.763171
2023-04-19T06:52:51.416Z,9.763171
2023-04-19T06:53:52.401Z,9.763171
2023-04-19T06:54:51.416Z,9.763171
2023-04-19T06:55:51.385Z,9.763171
2023-04-19T06:56:51.502Z,9.763171
2023-04-19T06:57:51.467Z,9.763171
2023-04-19T06:58:52.955Z,9.763171
2023-04-19T06:59:51.507Z,9.763171
2023-04-19T07:00:51.599Z,9.763171
2023-04-19T07:01:51.612Z,9.763171
2023-04-19T07:02:51.462Z,9.763171
2023-04-19T07:03:51.552Z,9.763171
2023-04-19T07:04:51.488Z,9.763171
2023-04-19T07:05:51.395Z,9.763171
2023-04-19T07:06:52.146Z,9.763171
2023-04-19T07:07:51.329Z,9.763171
2023-04-19T07:08:51.472Z,9.763171
2023-04-19T07:09:51.855Z,9.763171
2023-04-19T07:10:51.708Z,9.763171
2023-04-19T07:11:51.417Z,9.763171
2023-04-19T07:12:51.305Z,9.763171
2023-04-19T07:13:51.359Z,9.763171
2023-04-19T07:14:51.485Z,9.763171
2023-04-19T07:15:51.380Z,9.763171
2023-04-19T07:16:52.699Z,9.763171
2023-04-19T07:17:51.305Z,9.763171
2023-04-19T07:18:51.265Z,9.763171
2023-04-19T07:19:51.309Z,9.763171
2023-04-19T07:20:51.299Z,9.763171
2023-04-19T07:21:51.254Z,9.763171
2023-04-19T07:22:51.308Z,9.763171
2023-04-19T07:23:51.633Z,9.763171
2023-04-19T07:24:51.344Z,9.763171
2023-04-19T07:25:51.135Z,9.763171
2023-04-19T07:26:51.178Z,9.763171
2023-04-19T07:27:52.278Z,9.763171
2023-04-19T07:28:51.120Z,9.763171
2023-04-19T07:29:51.071Z,9.763171
2023-04-19T07:30:51.146Z,9.763171
2023-04-19T07:31:51.120Z,9.763171
2023-04-19T07:32:52.095Z,9.763171
2023-04-19T07:33:51.099Z,9.763171
2023-04-19T07:34:51.129Z,9.763171
2023-04-19T07:35:51.213Z,9.763171
2023-04-19T07:36:51.067Z,9.763171
2023-04-19T07:37:51.025Z,9.763171
2023-04-19T07:38:50.990Z,9.763171
2023-04-19T07:39:51.018Z,9.763171
2023-04-19T07:40:50.992Z,9.763171
2023-04-19T07:41:50.969Z,9.763171
2023-04-19T07:42:51.830Z,9.763171
2023-04-19T07:43:50.909Z,9.763171
2023-04-19T07:44:50.890Z,9.763171
2023-04-19T07:45:51.920Z,9.763171
2023-04-19T07:46:51.064Z,9.763171
2023-04-19T07:47:50.905Z,9.763171
2023-04-19T07:48:51.951Z,9.763171
2023-04-19T07:49:51.280Z,9.763171
2023-04-19T07:50:58.752Z,9.763171
2023-04-19T07:51:50.940Z,9.763171
2023-04-19T07:52:50.870Z,9.763171
2023-04-19T07:53:50.820Z,9.763171
2023-04-19T07:54:50.836Z,9.763171
2023-04-19T07:55:50.876Z,9.763171
2023-04-19T07:56:50.816Z,9.763171
2023-04-19T07:57:50.790Z,9.763171
2023-04-19T07:59:04.406Z,9.763171
2023-04-19T07:59:52.784Z,9.763171
2023-04-19T08:00:50.902Z,9.763171
2023-04-19T08:01:50.895Z,9.763171
2023-04-19T08:02:50.944Z,9.763171
2023-04-19T08:03:51.005Z,9.763171
2023-04-19T08:04:51.158Z,9.763171
2023-04-19T08:05:51.000Z,9.763171
2023-04-19T08:06:50.733Z,9.763171
2023-04-19T08:07:50.777Z,9.763171
2023-04-19T08:08:50.783Z,9.763171
2023-04-19T08:09:50.889Z,9.763171
2023-04-19T08:10:50.752Z,9.763171
2023-04-19T08:11:50.718Z,9.763171
2023-04-19T08:13:03.699Z,9.763171
2023-04-19T08:14:04.419Z,9.763171
2023-04-19T08:15:02.547Z,9.763171
2023-04-19T08:17:51.684Z,9.763171
2023-04-19T08:18:50.922Z,9.763171
2023-04-19T08:19:50.566Z,9.763171
2023-04-19T08:20:50.602Z,9.763171
2023-04-19T08:21:50.575Z,9.763171
2023-04-19T08:22:50.783Z,9.763171
2023-04-19T08:23:52.624Z,9.763171
2023-04-19T08:24:50.507Z,9.763171
2023-04-19T08:25:50.547Z,9.763171
2023-04-19T08:26:50.540Z,9.763171
2023-04-19T08:27:50.589Z,9.763171
2023-04-19T08:28:50.713Z,9.763171
2023-04-19T08:29:50.569Z,9.763171
2023-04-19T08:30:50.607Z,9.763171
2023-04-19T08:31:50.572Z,9.763171
2023-04-19T08:32:50.654Z,9.763171
2023-04-19T08:33:50.438Z,9.763171
2023-04-19T08:34:50.509Z,9.763171
2023-04-19T08:35:50.490Z,9.763171
2023-04-19T08:36:56.189Z,9.763171
2023-04-19T08:37:52.396Z,9.763171
2023-04-19T08:39:01.973Z,9.763171
2023-04-19T08:39:52.445Z,9.763171
2023-04-19T08:40:50.308Z,9.763171
2023-04-19T08:41:59.050Z,9.763171
2023-04-19T08:42:52.300Z,9.763171
2023-04-19T08:43:50.296Z,9.763171
2023-04-19T08:45:06.343Z,9.763171
2023-04-19T08:45:52.337Z,9.763171
2023-04-19T08:46:50.273Z,9.763171
2023-04-19T08:47:59.806Z,9.763171
2023-04-19T08:48:52.577Z,9.763171
2023-04-19T08:50:03.802Z,9.763171
2023-04-19T08:51:03.455Z,9.763171
2023-04-19T08:51:52.353Z,9.763171
2023-04-19T08:52:56.004Z,9.763171
2023-04-19T08:53:52.209Z,9.763171
2023-04-19T08:54:50.190Z,9.763171
2023-04-19T08:56:08.844Z,9.763171
2023-04-19T08:56:52.335Z,9.763171
2023-04-19T08:57:50.142Z,9.763171
2023-04-19T08:59:51.227Z,9.763171
2023-04-19T09:00:50.174Z,9.763171
2023-04-19T09:01:50.115Z,9.763171
2023-04-19T09:02:50.395Z,9.763171
2023-04-19T09:04:02.282Z,9.763171
2023-04-19T09:04:52.446Z,9.763171
2023-04-19T09:05:50.443Z,9.763171
2023-04-19T09:06:50.092Z,9.763171
2023-04-19T09:07:50.138Z,9.763171
2023-04-19T09:08:50.008Z,9.763171
2023-04-19T09:10:00.064Z,9.763171
2023-04-19T09:10:51.960Z,9.763171
2023-04-19T09:11:50.993Z,9.763171
2023-04-19T09:12:50.066Z,9.763171
2023-04-19T09:13:51.276Z,9.763171
2023-04-19T09:15:01.306Z,9.763171
2023-04-19T09:15:51.900Z,9.763171
2023-04-19T09:16:49.934Z,9.763171
2023-04-19T09:17:49.992Z,9.763171
2023-04-19T09:18:59.985Z,9.763171
2023-04-19T09:19:51.886Z,9.763171
2023-04-19T09:20:49.957Z,9.763171
2023-04-19T09:21:49.897Z,9.763171
2023-04-19T09:22:49.897Z,9.763171
2023-04-19T09:23:49.911Z,9.763171
2023-04-19T09:26:15.202Z,9.763171
2023-04-19T09:26:51.760Z,9.763171
2023-04-19T09:27:49.844Z,9.763171
2023-04-19T09:28:49.881Z,9.763171
2023-04-19T09:29:49.939Z,9.763171
2023-04-19T09:31:03.227Z,9.763171
2023-04-19T09:31:52.367Z,9.763171
2023-04-19T09:32:50.929Z,9.763171
2023-04-19T09:33:49.839Z,9.763171
2023-04-19T09:34:49.773Z,9.763171
2023-04-19T09:35:49.734Z,9.763171
2023-04-19T09:36:54.564Z,9.763171
2023-04-19T09:38:04.718Z,9.763171
2023-04-19T09:38:51.746Z,9.763171
2023-04-19T09:39:49.753Z,9.763171
2023-04-19T09:40:49.684Z,9.763171
2023-04-19T09:41:49.664Z,9.763171
2023-04-19T09:45:16.895Z,9.763171
2023-04-19T09:45:51.604Z,9.763171
2023-04-19T09:46:52.374Z,9.763171
2023-04-19T09:47:49.609Z,9.763171
2023-04-19T09:48:49.657Z,9.763171
2023-04-19T09:49:49.931Z,9.763171
2023-04-19T09:50:56.549Z,9.763171
2023-04-19T09:51:51.545Z,9.763171
2023-04-19T09:52:49.756Z,9.763171
2023-04-19T09:53:49.571Z,9.763171
2023-04-19T09:54:49.596Z,9.763171
2023-04-19T09:56:00.412Z,9.763171
2023-04-19T09:56:51.626Z,9.763171
2023-04-19T09:57:49.576Z,9.763171
2023-04-19T09:58:52.814Z,9.763171
2023-04-19T09:59:51.501Z,9.763171
2023-04-19T10:00:53.089Z,9.763171
2023-04-19T10:01:51.604Z,9.763171
2023-04-19T10:02:51.950Z,9.763171
2023-04-19T10:03:51.578Z,9.763171
2023-04-19T10:05:03.264Z,9.763171
2023-04-19T10:05:51.521Z,9.763171
2023-04-19T10:07:13.925Z,9.763171
2023-04-19T10:07:51.462Z,9.763171
2023-04-19T10:08:49.480Z,9.763171
2023-04-19T10:09:53.612Z,9.763171
2023-04-19T10:10:51.485Z,9.763171
2023-04-19T10:11:51.213Z,9.763171
2023-04-19T10:13:07.411Z,9.763171
2023-04-19T10:13:51.400Z,9.763171
2023-04-19T10:14:49.478Z,9.763171
2023-04-19T10:15:52.747Z,9.763171
2023-04-19T10:16:51.378Z,9.763171
2023-04-19T10:17:49.389Z,9.763171
2023-04-19T10:18:49.300Z,9.763171
2023-04-19T10:19:49.335Z,9.763171
2023-04-19T10:20:49.340Z,9.763171
2023-04-19T10:21:49.324Z,9.763171
2023-04-19T10:22:49.403Z,9.763171
2023-04-19T10:23:49.336Z,9.763171
2023-04-19T10:24:49.406Z,9.763171
2023-04-19T10:25:50.056Z,9.763171
2023-04-19T10:26:49.316Z,9.763171
2023-04-19T10:27:49.277Z,9.763171
2023-04-19T10:28:49.344Z,9.763171
2023-04-19T10:29:49.184Z,9.763171
2023-04-19T10:30:49.256Z,9.763171
2023-04-19T10:31:49.233Z,9.763171
2023-04-19T10:32:49.236Z,9.763171
2023-04-19T10:33:49.255Z,9.763171
2023-04-19T10:34:49.231Z,9.763171
2023-04-19T10:35:49.292Z,9.763171
2023-04-19T10:36:49.197Z,9.763171
2023-04-19T10:37:49.123Z,9.763171
2023-04-19T10:38:49.134Z,9.763171
2023-04-19T10:39:49.159Z,9.763171
2023-04-19T10:40:49.152Z,9.763171
2023-04-19T10:41:49.102Z,9.763171
2023-04-19T10:42:49.053Z,9.763171
2023-04-19T10:43:49.039Z,9.763171
2023-04-19T10:44:49.052Z,9.763171
2023-04-19T10:45:49.052Z,9.763171
2023-04-19T10:46:48.960Z,9.763171
2023-04-19T10:47:48.996Z,9.763171
2023-04-19T10:48:48.990Z,9.763171
2023-04-19T10:49:48.972Z,9.763171
2023-04-19T10:50:48.971Z,9.763171
2023-04-19T10:51:49.006Z,9.763171
2023-04-19T10:52:48.950Z,9.763171
2023-04-19T10:53:49.015Z,9.763171
2023-04-19T10:54:48.913Z,9.763171
2023-04-19T10:55:48.963Z,9.763171
2023-04-19T10:56:48.960Z,9.763171
2023-04-19T10:57:48.877Z,9.762717
2023-04-19T10:58:48.976Z,9.762746
2023-04-19T10:59:48.846Z,9.762746
2023-04-19T11:00:48.823Z,9.762779
2023-04-19T11:01:48.879Z,9.762748
2023-04-19T11:02:48.939Z,9.762660
2023-04-19T11:03:48.965Z,9.762620
2023-04-19T11:04:48.894Z,9.762703
2023-04-19T11:05:48.767Z,9.762735
2023-04-19T11:06:48.775Z,9.762772
2023-04-19T11:07:48.766Z,9.762629
2023-04-19T11:08:48.734Z,9.762703
2023-04-19T11:09:48.755Z,9.762761
2023-04-19T11:10:48.751Z,9.762914
2023-04-19T11:11:48.771Z,9.762614
2023-04-19T11:12:48.736Z,9.762668
2023-04-19T11:13:48.768Z,9.762744
2023-04-19T11:14:48.742Z,9.762719
2023-04-19T11:15:48.746Z,9.762690
2023-04-19T11:16:48.801Z,9.762604
2023-04-19T11:17:52.871Z,9.762628
2023-04-19T11:18:49.643Z,9.762625
2023-04-19T11:19:48.677Z,9.762656
2023-04-19T11:20:48.673Z,9.762645
2023-04-19T11:21:48.718Z,9.762785
2023-04-19T11:22:48.630Z,9.762863
2023-04-19T11:23:49.127Z,9.762689
2023-04-19T11:24:48.578Z,9.762712
2023-04-19T11:25:48.592Z,9.762834
2023-04-19T11:26:48.659Z,9.762669
2023-04-19T11:27:48.560Z,9.762836
2023-04-19T11:28:48.654Z,9.762776
2023-04-19T11:29:48.566Z,9.762773
2023-04-19T11:30:48.556Z,9.762806
2023-04-19T11:31:48.618Z,9.762779
2023-04-19T11:32:48.801Z,9.762637
2023-04-19T11:33:48.512Z,9.762621
2023-04-19T11:34:48.468Z,9.762416
2023-04-19T11:35:48.485Z,9.762633
2023-04-19T11:36:48.467Z,9.762657
2023-04-19T11:37:48.444Z,9.762820
2023-04-19T11:38:48.428Z,9.762875
2023-04-19T11:39:48.432Z,9.762877
2023-04-19T11:40:48.426Z,9.762867
2023-04-19T11:41:48.421Z,9.762957
2023-04-19T11:42:48.389Z,9.762718
2023-04-19T11:43:48.433Z,9.762768
2023-04-19T11:45:03.502Z,9.762773
2023-04-19T11:45:48.372Z,9.762781
2023-04-19T11:46:48.402Z,9.762791
2023-04-19T11:47:48.393Z,9.762722
2023-04-19T11:48:48.375Z,9.762689
2023-04-19T13:29:14.495Z,9.761905
2023-04-19T13:30:14.464Z,9.762550
2023-04-19T13:31:14.506Z,9.763026
2023-04-19T13:32:14.470Z,9.762867
2023-04-19T13:33:14.519Z,9.762994
2023-04-19T13:34:14.648Z,9.762773
2023-04-19T13:35:14.988Z,9.762646
2023-04-19T13:36:14.422Z,9.762657
2023-04-19T13:37:14.432Z,9.762566
2023-04-19T13:38:14.428Z,9.762695
2023-04-19T13:39:14.441Z,9.762692
2023-04-19T13:40:19.280Z,9.762428
2023-04-19T13:41:16.362Z,9.762756
2023-04-19T13:42:14.377Z,9.762712
2023-04-19T13:43:14.460Z,9.762669
2023-04-19T13:44:22.724Z,9.762713
2023-04-19T13:45:14.435Z,9.762711
2023-04-19T13:46:14.477Z,9.762741
2023-04-19T13:47:14.455Z,9.762903
2023-04-19T13:48:14.579Z,9.762999
2023-04-19T13:49:14.580Z,9.762754
2023-04-19T13:50:14.474Z,9.762784
2023-04-19T13:51:14.377Z,9.762813
2023-04-19T13:52:14.338Z,9.762836
2023-04-19T13:53:14.561Z,9.762826
2023-04-19T13:54:14.852Z,9.763018
2023-04-19T13:55:14.343Z,9.763135
2023-04-19T13:56:14.261Z,9.762848
2023-04-19T13:57:14.366Z,9.762896
2023-04-19T13:58:14.417Z,9.762858
2023-04-19T13:59:14.316Z,9.763211
2023-04-19T14:00:14.349Z,9.763094
2023-04-19T14:01:14.575Z,9.762975
2023-04-19T14:02:14.412Z,9.762753
2023-04-19T14:03:14.611Z,9.762716
2023-04-19T14:04:14.580Z,9.762771
2023-04-19T14:05:14.270Z,9.762783
2023-04-19T14:06:14.277Z,9.762917
2023-04-19T14:07:14.272Z,9.762831
2023-04-19T14:08:14.333Z,9.762748
2023-04-19T14:09:14.244Z,9.762758
2023-04-19T14:10:14.232Z,9.762761
2023-04-19T14:11:14.146Z,9.762770
2023-04-19T14:12:14.236Z,9.762672
2023-04-19T14:13:14.207Z,9.762670
2023-04-19T14:14:14.382Z,9.762849
2023-04-19T14:15:15.152Z,9.762666
2023-04-19T14:16:14.176Z,9.762757
2023-04-19T14:17:14.208Z,9.762680
2023-04-19T14:18:14.244Z,9.762726
2023-04-19T14:19:14.122Z,9.763014
2023-04-19T14:20:14.109Z,9.762528
2023-04-19T14:21:14.086Z,9.762734
2023-04-19T14:22:14.061Z,9.762649
2023-04-19T14:23:14.025Z,9.762875
2023-04-19T14:24:15.888Z,9.762894
2023-04-19T14:25:14.013Z,9.762852
2023-04-19T14:26:13.996Z,9.762860
2023-04-19T14:27:14.024Z,9.763000
